CAL520 ZSGZ-ZSDY
Flight info
| Callsign | CAL520 |
|---|---|
| Flight time | 1h 50m |
| Altitude | 32000 |
| Route | KOW PANBO EMRAL LUAN ABTUB A593 DALIM W142 YQG W569 NOBUP W4 BASOV DOY |
| Aircraft | B738/M-V/N |
Departure
| Time | 2026-05-06 07:00 |
|---|---|
| Airport | Ganzhou Huangjin Airport (ZSGZ) |
Arrival
| Time | 2026-05-06 08:50 |
|---|---|
| Airport | Dongying Shengli Airport (ZSDY) |
| Time | Latitude | Longitude | Altitude | Speed | Heading |
|---|---|---|---|---|---|
| 2026-05-06 06:54 | 25.85019 | 114.77763 | 433 ft | 0 kts | 63° |
| 2026-05-06 06:55 | 25.85037 | 114.77801 | 433 ft | 9 kts | 62° |
| 2026-05-06 06:55 | 25.85051 | 114.77853 | 433 ft | 5 kts | 129° |
| 2026-05-06 06:55 | 25.85007 | 114.77784 | 433 ft | 17 kts | 246° |
| 2026-05-06 06:56 | 25.84969 | 114.77668 | 433 ft | 15 kts | 276° |
| 2026-05-06 06:56 | 25.85041 | 114.77588 | 433 ft | 16 kts | 327° |
| 2026-05-06 06:56 | 25.85133 | 114.77537 | 433 ft | 12 kts | 354° |
| 2026-05-06 06:56 | 25.85198 | 114.77603 | 433 ft | 21 kts | 61° |
| 2026-05-06 06:57 | 25.85299 | 114.77822 | 433 ft | 41 kts | 64° |
| 2026-05-06 06:57 | 25.85430 | 114.78106 | 433 ft | 39 kts | 63° |
| 2026-05-06 06:57 | 25.85512 | 114.78284 | 433 ft | 38 kts | 64° |
| 2026-05-06 06:57 | 25.85668 | 114.78624 | 433 ft | 36 kts | 63° |
| 2026-05-06 06:58 | 25.85743 | 114.78788 | 433 ft | 34 kts | 64° |
| 2026-05-06 06:58 | 25.85827 | 114.79031 | 433 ft | 15 kts | 71° |
| 2026-05-06 06:58 | 25.85853 | 114.79042 | 433 ft | 4 kts | 266° |
| 2026-05-06 06:58 | 25.85841 | 114.78999 | 433 ft | 0 kts | 243° |
| 2026-05-06 06:59 | 25.85836 | 114.78989 | 433 ft | 5 kts | 242° |
| 2026-05-06 06:59 | 25.85708 | 114.78711 | 433 ft | 80 kts | 243° |
| 2026-05-06 06:59 | 25.85345 | 114.77927 | 433 ft | 147 kts | 242° |
| 2026-05-06 06:59 | 25.84829 | 114.76734 | 623 ft | 185 kts | 245° |
| 2026-05-06 07:00 | 25.84505 | 114.75865 | 1159 ft | 184 kts | 246° |
| 2026-05-06 07:00 | 25.83694 | 114.74086 | 1730 ft | 209 kts | 237° |
| 2026-05-06 07:00 | 25.83182 | 114.73109 | 1866 ft | 230 kts | 239° |
| 2026-05-06 07:00 | 25.82403 | 114.71530 | 2444 ft | 244 kts | 240° |
| 2026-05-06 07:01 | 25.81651 | 114.69735 | 2948 ft | 264 kts | 255° |
| 2026-05-06 07:01 | 25.81709 | 114.67681 | 3634 ft | 274 kts | 290° |
| 2026-05-06 07:01 | 25.83308 | 114.65599 | 4640 ft | 278 kts | 335° |
| 2026-05-06 07:01 | 25.84538 | 114.65179 | 5142 ft | 278 kts | 357° |
| 2026-05-06 07:02 | 25.86855 | 114.65865 | 6128 ft | 276 kts | 39° |
| 2026-05-06 07:02 | 25.88075 | 114.67400 | 6904 ft | 275 kts | 58° |
| 2026-05-06 07:02 | 25.89042 | 114.69243 | 7659 ft | 277 kts | 62° |
| 2026-05-06 07:02 | 25.89950 | 114.71122 | 8396 ft | 280 kts | 62° |
| 2026-05-06 07:03 | 25.90875 | 114.73054 | 9109 ft | 284 kts | 63° |
| 2026-05-06 07:03 | 25.91481 | 114.74322 | 9599 ft | 285 kts | 62° |
| 2026-05-06 07:03 | 25.92993 | 114.76766 | 10297 ft | 299 kts | 44° |
| 2026-05-06 07:03 | 25.94721 | 114.78158 | 10669 ft | 314 kts | 30° |
| 2026-05-06 07:04 | 25.95992 | 114.78909 | 10899 ft | 324 kts | 27° |
| 2026-05-06 07:04 | 25.98033 | 114.80012 | 11340 ft | 334 kts | 26° |
| 2026-05-06 07:04 | 26.00835 | 114.81528 | 12129 ft | 340 kts | 26° |
| 2026-05-06 07:04 | 26.02253 | 114.82312 | 12542 ft | 342 kts | 27° |
| 2026-05-06 07:05 | 26.05115 | 114.83917 | 13361 ft | 347 kts | 27° |
| 2026-05-06 07:05 | 26.07251 | 114.85127 | 13957 ft | 350 kts | 27° |
| 2026-05-06 07:05 | 26.08693 | 114.85946 | 14346 ft | 352 kts | 27° |
| 2026-05-06 07:05 | 26.11622 | 114.87613 | 15118 ft | 356 kts | 27° |
| 2026-05-06 07:06 | 26.13811 | 114.88860 | 15669 ft | 359 kts | 27° |
| 2026-05-06 07:06 | 26.15302 | 114.89710 | 16033 ft | 362 kts | 27° |
| 2026-05-06 07:06 | 26.17550 | 114.90992 | 16569 ft | 365 kts | 27° |
| 2026-05-06 07:06 | 26.20546 | 114.92701 | 17258 ft | 369 kts | 26° |
| 2026-05-06 07:07 | 26.22847 | 114.94014 | 17763 ft | 372 kts | 26° |
| 2026-05-06 07:07 | 26.25135 | 114.95321 | 18254 ft | 375 kts | 26° |
| 2026-05-06 07:07 | 26.26685 | 114.96206 | 18576 ft | 377 kts | 26° |
| 2026-05-06 07:07 | 26.29814 | 114.97993 | 19217 ft | 380 kts | 26° |
| 2026-05-06 07:08 | 26.32147 | 114.99326 | 19676 ft | 383 kts | 26° |
| 2026-05-06 07:08 | 26.34517 | 115.00680 | 20135 ft | 385 kts | 26° |
| 2026-05-06 07:08 | 26.36896 | 115.02040 | 20577 ft | 388 kts | 26° |
| 2026-05-06 07:08 | 26.39305 | 115.03419 | 21012 ft | 390 kts | 26° |
| 2026-05-06 07:09 | 26.40914 | 115.04340 | 21293 ft | 392 kts | 26° |
| 2026-05-06 07:09 | 26.44169 | 115.06203 | 21853 ft | 395 kts | 27° |
| 2026-05-06 07:09 | 26.46628 | 115.07613 | 22256 ft | 398 kts | 27° |
| 2026-05-06 07:09 | 26.49086 | 115.09023 | 22652 ft | 400 kts | 27° |
| 2026-05-06 07:10 | 26.51549 | 115.10435 | 23032 ft | 402 kts | 27° |
| 2026-05-06 07:10 | 26.53210 | 115.11388 | 23288 ft | 404 kts | 27° |
| 2026-05-06 07:10 | 26.56558 | 115.13311 | 23774 ft | 407 kts | 27° |
| 2026-05-06 07:10 | 26.59048 | 115.14741 | 24134 ft | 409 kts | 27° |
| 2026-05-06 07:11 | 26.61586 | 115.16200 | 24479 ft | 411 kts | 27° |
| 2026-05-06 07:11 | 26.63288 | 115.17179 | 24699 ft | 413 kts | 27° |
| 2026-05-06 07:11 | 26.65855 | 115.18655 | 25040 ft | 415 kts | 27° |
| 2026-05-06 07:11 | 26.68383 | 115.20110 | 25353 ft | 417 kts | 27° |
| 2026-05-06 07:12 | 26.70864 | 115.21539 | 25664 ft | 419 kts | 27° |
| 2026-05-06 07:12 | 26.74336 | 115.23496 | 26067 ft | 422 kts | 25° |
| 2026-05-06 07:12 | 26.77043 | 115.24796 | 26378 ft | 424 kts | 22° |
| 2026-05-06 07:12 | 26.78863 | 115.25600 | 26561 ft | 426 kts | 21° |
| 2026-05-06 07:13 | 26.82613 | 115.27051 | 26958 ft | 428 kts | 17° |
| 2026-05-06 07:13 | 26.85480 | 115.27926 | 27239 ft | 430 kts | 14° |
| 2026-05-06 07:13 | 26.87401 | 115.28436 | 27421 ft | 431 kts | 13° |
| 2026-05-06 07:13 | 26.91337 | 115.29424 | 27716 ft | 436 kts | 13° |
| 2026-05-06 07:14 | 26.94312 | 115.30155 | 27898 ft | 440 kts | 13° |
| 2026-05-06 07:14 | 26.97282 | 115.30881 | 28063 ft | 444 kts | 13° |
| 2026-05-06 07:14 | 27.00328 | 115.31626 | 28227 ft | 448 kts | 13° |
| 2026-05-06 07:14 | 27.03399 | 115.32383 | 28399 ft | 452 kts | 13° |
| 2026-05-06 07:15 | 27.06466 | 115.33147 | 28620 ft | 454 kts | 13° |
| 2026-05-06 07:15 | 27.09514 | 115.33901 | 28859 ft | 456 kts | 12° |
| 2026-05-06 07:15 | 27.11622 | 115.34413 | 29032 ft | 457 kts | 12° |
| 2026-05-06 07:15 | 27.14715 | 115.35156 | 29254 ft | 459 kts | 12° |
| 2026-05-06 07:16 | 27.17824 | 115.35901 | 29487 ft | 460 kts | 12° |
| 2026-05-06 07:16 | 27.22003 | 115.36906 | 29779 ft | 462 kts | 12° |
| 2026-05-06 07:16 | 27.24069 | 115.37404 | 29919 ft | 463 kts | 12° |
| 2026-05-06 07:16 | 27.27245 | 115.38171 | 30127 ft | 465 kts | 12° |
| 2026-05-06 07:17 | 27.31452 | 115.39192 | 30423 ft | 466 kts | 12° |
| 2026-05-06 07:17 | 27.34599 | 115.39973 | 30669 ft | 467 kts | 13° |
| 2026-05-06 07:17 | 27.37758 | 115.40771 | 30948 ft | 466 kts | 13° |
| 2026-05-06 07:17 | 27.39854 | 115.41304 | 31131 ft | 466 kts | 13° |
| 2026-05-06 07:18 | 27.43038 | 115.42119 | 31387 ft | 466 kts | 13° |
| 2026-05-06 07:18 | 27.46168 | 115.42918 | 31655 ft | 465 kts | 12° |
| 2026-05-06 07:18 | 27.49289 | 115.43710 | 31916 ft | 464 kts | 12° |
| 2026-05-06 07:19 | 27.56666 | 115.45538 | 31873 ft | 471 kts | 12° |
| 2026-05-06 07:19 | 27.62019 | 115.46810 | 31807 ft | 466 kts | 11° |
| 2026-05-06 07:20 | 27.69394 | 115.48498 | 31805 ft | 466 kts | 11° |
| 2026-05-06 07:20 | 27.75741 | 115.49925 | 31805 ft | 468 kts | 11° |
| 2026-05-06 07:21 | 27.82096 | 115.51371 | 31804 ft | 467 kts | 11° |
| 2026-05-06 07:21 | 27.87370 | 115.52606 | 31804 ft | 467 kts | 12° |
| 2026-05-06 07:22 | 27.93735 | 115.54152 | 31805 ft | 467 kts | 12° |
| 2026-05-06 07:22 | 28.00022 | 115.55743 | 31805 ft | 467 kts | 12° |
| 2026-05-06 07:23 | 28.06353 | 115.57381 | 31805 ft | 467 kts | 12° |
| 2026-05-06 07:23 | 28.12675 | 115.58992 | 31803 ft | 467 kts | 12° |
| 2026-05-06 07:24 | 28.18981 | 115.60576 | 31803 ft | 467 kts | 12° |
| 2026-05-06 07:24 | 28.25307 | 115.62153 | 31804 ft | 467 kts | 12° |
| 2026-05-06 07:25 | 28.31654 | 115.63731 | 31804 ft | 467 kts | 12° |
| 2026-05-06 07:25 | 28.39045 | 115.65565 | 31803 ft | 467 kts | 12° |
| 2026-05-06 07:26 | 28.44297 | 115.66868 | 31803 ft | 467 kts | 12° |
| 2026-05-06 07:26 | 28.51695 | 115.68704 | 31804 ft | 467 kts | 12° |
| 2026-05-06 07:27 | 28.57994 | 115.70270 | 31804 ft | 467 kts | 12° |
| 2026-05-06 07:27 | 28.63269 | 115.71582 | 31804 ft | 467 kts | 12° |
| 2026-05-06 07:28 | 28.70672 | 115.73426 | 31804 ft | 467 kts | 12° |
| 2026-05-06 07:28 | 28.79126 | 115.75536 | 31804 ft | 467 kts | 12° |
| 2026-05-06 07:29 | 28.85440 | 115.77113 | 31805 ft | 467 kts | 12° |
| 2026-05-06 07:29 | 28.91780 | 115.78699 | 31804 ft | 467 kts | 12° |
| 2026-05-06 07:30 | 28.98113 | 115.80285 | 31804 ft | 468 kts | 12° |
| 2026-05-06 07:30 | 29.05489 | 115.82206 | 31804 ft | 468 kts | 11° |
| 2026-05-06 07:31 | 29.11854 | 115.83559 | 31804 ft | 465 kts | 5° |
| 2026-05-06 07:31 | 29.17168 | 115.84358 | 31802 ft | 462 kts | 4° |
| 2026-05-06 07:32 | 29.24583 | 115.85435 | 31803 ft | 462 kts | 4° |
| 2026-05-06 07:32 | 29.30946 | 115.86359 | 31803 ft | 463 kts | 4° |
| 2026-05-06 07:33 | 29.36272 | 115.87131 | 31803 ft | 463 kts | 4° |
| 2026-05-06 07:33 | 29.43712 | 115.88212 | 31803 ft | 463 kts | 4° |
| 2026-05-06 07:34 | 29.50067 | 115.89136 | 31803 ft | 463 kts | 4° |
| 2026-05-06 07:34 | 29.56431 | 115.90062 | 31803 ft | 463 kts | 4° |
| 2026-05-06 07:35 | 29.61740 | 115.90836 | 31803 ft | 463 kts | 4° |
| 2026-05-06 07:35 | 29.68100 | 115.91763 | 31804 ft | 463 kts | 4° |
| 2026-05-06 07:36 | 29.75544 | 115.92851 | 31803 ft | 463 kts | 4° |
| 2026-05-06 07:36 | 29.81898 | 115.93780 | 31804 ft | 463 kts | 4° |
| 2026-05-06 07:37 | 29.88296 | 115.94717 | 31804 ft | 463 kts | 4° |
| 2026-05-06 07:37 | 29.94665 | 115.95650 | 31804 ft | 463 kts | 4° |
| 2026-05-06 07:38 | 30.01015 | 115.96582 | 31804 ft | 463 kts | 4° |
| 2026-05-06 07:38 | 30.07416 | 115.97523 | 31804 ft | 463 kts | 4° |
| 2026-05-06 07:39 | 30.13783 | 115.98460 | 31807 ft | 463 kts | 4° |
| 2026-05-06 07:39 | 30.20123 | 115.99394 | 31814 ft | 463 kts | 4° |
| 2026-05-06 07:40 | 30.25442 | 116.00179 | 31820 ft | 462 kts | 4° |
| 2026-05-06 07:40 | 30.31789 | 116.01117 | 31824 ft | 463 kts | 4° |
| 2026-05-06 07:41 | 30.39243 | 116.02219 | 31826 ft | 463 kts | 4° |
| 2026-05-06 07:41 | 30.44543 | 116.03005 | 31828 ft | 463 kts | 4° |
| 2026-05-06 07:42 | 30.51961 | 116.04105 | 31830 ft | 463 kts | 4° |
| 2026-05-06 07:42 | 30.57284 | 116.04895 | 31833 ft | 463 kts | 4° |
| 2026-05-06 07:43 | 30.64717 | 116.06001 | 31845 ft | 463 kts | 4° |
| 2026-05-06 07:43 | 30.70016 | 116.06789 | 31853 ft | 463 kts | 4° |
| 2026-05-06 07:44 | 30.77407 | 116.07892 | 31858 ft | 463 kts | 4° |
| 2026-05-06 07:44 | 30.82753 | 116.08690 | 31858 ft | 463 kts | 4° |
| 2026-05-06 07:45 | 30.90181 | 116.09800 | 31858 ft | 463 kts | 4° |
| 2026-05-06 07:45 | 30.96546 | 116.10753 | 31859 ft | 465 kts | 4° |
| 2026-05-06 07:46 | 31.02962 | 116.11714 | 31860 ft | 468 kts | 3° |
| 2026-05-06 07:46 | 31.08345 | 116.12522 | 31860 ft | 470 kts | 3° |
| 2026-05-06 07:47 | 31.14792 | 116.13492 | 31858 ft | 469 kts | 3° |
| 2026-05-06 07:47 | 31.22356 | 116.14631 | 31858 ft | 469 kts | 3° |
| 2026-05-06 07:48 | 31.28776 | 116.15599 | 31858 ft | 469 kts | 3° |
| 2026-05-06 07:48 | 31.35281 | 116.16581 | 31859 ft | 469 kts | 3° |
| 2026-05-06 07:49 | 31.41710 | 116.17553 | 31858 ft | 469 kts | 3° |
| 2026-05-06 07:49 | 31.48173 | 116.18532 | 31859 ft | 469 kts | 3° |
| 2026-05-06 07:50 | 31.54641 | 116.19512 | 31859 ft | 469 kts | 3° |
| 2026-05-06 07:50 | 31.61081 | 116.20489 | 31860 ft | 469 kts | 3° |
| 2026-05-06 07:51 | 31.67502 | 116.21465 | 31860 ft | 469 kts | 3° |
| 2026-05-06 07:51 | 31.73976 | 116.22451 | 31860 ft | 468 kts | 3° |
| 2026-05-06 07:52 | 31.79369 | 116.23273 | 31860 ft | 469 kts | 3° |
| 2026-05-06 07:52 | 31.86898 | 116.24423 | 31860 ft | 469 kts | 3° |
| 2026-05-06 07:53 | 31.93330 | 116.25405 | 31861 ft | 469 kts | 3° |
| 2026-05-06 07:53 | 31.99791 | 116.26395 | 31860 ft | 469 kts | 3° |
| 2026-05-06 07:54 | 32.06230 | 116.27382 | 31861 ft | 469 kts | 3° |
| 2026-05-06 07:54 | 32.12663 | 116.28766 | 31860 ft | 471 kts | 8° |
| 2026-05-06 07:55 | 32.19037 | 116.30448 | 31859 ft | 472 kts | 8° |
| 2026-05-06 07:55 | 32.25453 | 116.32155 | 31859 ft | 472 kts | 9° |
| 2026-05-06 07:56 | 32.30747 | 116.33567 | 31860 ft | 472 kts | 9° |
| 2026-05-06 07:56 | 32.37152 | 116.35278 | 31860 ft | 472 kts | 9° |
| 2026-05-06 07:57 | 32.44603 | 116.37273 | 31860 ft | 472 kts | 8° |
| 2026-05-06 07:57 | 32.50985 | 116.38985 | 31861 ft | 472 kts | 9° |
| 2026-05-06 07:58 | 32.57385 | 116.40704 | 31861 ft | 472 kts | 9° |
| 2026-05-06 07:58 | 32.63747 | 116.42415 | 31861 ft | 472 kts | 8° |
| 2026-05-06 07:59 | 32.70153 | 116.44141 | 31861 ft | 472 kts | 9° |
| 2026-05-06 07:59 | 32.76534 | 116.45863 | 31861 ft | 472 kts | 9° |
| 2026-05-06 08:00 | 32.82899 | 116.47582 | 31862 ft | 471 kts | 9° |
| 2026-05-06 08:00 | 32.88210 | 116.49020 | 31862 ft | 472 kts | 9° |
| 2026-05-06 08:01 | 32.95677 | 116.51043 | 31862 ft | 472 kts | 9° |
| 2026-05-06 08:01 | 33.02068 | 116.52776 | 31864 ft | 473 kts | 8° |
| 2026-05-06 08:02 | 33.08461 | 116.54512 | 31863 ft | 475 kts | 7° |
| 2026-05-06 08:02 | 33.14896 | 116.56265 | 31860 ft | 476 kts | 7° |
| 2026-05-06 08:03 | 33.21345 | 116.58024 | 31862 ft | 476 kts | 7° |
| 2026-05-06 08:03 | 33.27795 | 116.59785 | 31862 ft | 476 kts | 7° |
| 2026-05-06 08:04 | 33.34242 | 116.61548 | 31862 ft | 477 kts | 7° |
| 2026-05-06 08:04 | 33.40666 | 116.63306 | 31862 ft | 475 kts | 7° |
| 2026-05-06 08:05 | 33.47096 | 116.65070 | 31755 ft | 475 kts | 8° |
| 2026-05-06 08:05 | 33.53548 | 116.66840 | 31747 ft | 477 kts | 7° |
| 2026-05-06 08:06 | 33.59972 | 116.68605 | 31749 ft | 477 kts | 8° |
| 2026-05-06 08:06 | 33.66427 | 116.70381 | 31747 ft | 477 kts | 7° |
| 2026-05-06 08:07 | 33.72888 | 116.72166 | 31746 ft | 476 kts | 8° |
| 2026-05-06 08:07 | 33.79328 | 116.73945 | 31747 ft | 477 kts | 7° |
| 2026-05-06 08:08 | 33.85754 | 116.75719 | 31751 ft | 477 kts | 7° |
| 2026-05-06 08:08 | 33.91148 | 116.77217 | 31748 ft | 477 kts | 7° |
| 2026-05-06 08:09 | 33.98666 | 116.79305 | 31751 ft | 478 kts | 7° |
| 2026-05-06 08:09 | 34.05143 | 116.81105 | 31750 ft | 477 kts | 7° |
| 2026-05-06 08:10 | 34.11606 | 116.82907 | 31750 ft | 477 kts | 7° |
| 2026-05-06 08:10 | 34.18015 | 116.84697 | 31748 ft | 476 kts | 7° |
| 2026-05-06 08:11 | 34.23401 | 116.86201 | 31751 ft | 478 kts | 7° |
| 2026-05-06 08:11 | 34.30935 | 116.88312 | 31745 ft | 476 kts | 8° |
| 2026-05-06 08:12 | 34.37367 | 116.90117 | 31747 ft | 477 kts | 8° |
| 2026-05-06 08:12 | 34.43824 | 116.91933 | 31747 ft | 479 kts | 8° |
| 2026-05-06 08:13 | 34.50274 | 116.93747 | 31750 ft | 477 kts | 7° |
| 2026-05-06 08:13 | 34.56745 | 116.95573 | 31749 ft | 477 kts | 7° |
| 2026-05-06 08:14 | 34.63206 | 116.97383 | 31753 ft | 479 kts | 8° |
| 2026-05-06 08:14 | 34.69649 | 116.99204 | 31750 ft | 479 kts | 7° |
| 2026-05-06 08:15 | 34.76133 | 117.01036 | 31749 ft | 479 kts | 7° |
| 2026-05-06 08:15 | 34.82597 | 117.02869 | 31745 ft | 479 kts | 8° |
| 2026-05-06 08:16 | 34.89077 | 117.04706 | 31748 ft | 479 kts | 7° |
| 2026-05-06 08:16 | 34.95524 | 117.06542 | 31750 ft | 478 kts | 6° |
| 2026-05-06 08:17 | 35.02019 | 117.08389 | 31754 ft | 479 kts | 6° |
| 2026-05-06 08:17 | 35.08488 | 117.10239 | 31748 ft | 478 kts | 5° |
| 2026-05-06 08:18 | 35.14951 | 117.12085 | 31750 ft | 480 kts | 5° |
| 2026-05-06 08:18 | 35.21469 | 117.13950 | 31749 ft | 483 kts | 6° |
| 2026-05-06 08:19 | 35.27983 | 117.15819 | 31746 ft | 479 kts | 5° |
| 2026-05-06 08:19 | 35.34424 | 117.17667 | 31749 ft | 476 kts | 5° |
| 2026-05-06 08:20 | 35.40865 | 117.19524 | 31757 ft | 480 kts | 5° |
| 2026-05-06 08:20 | 35.47359 | 117.21397 | 31748 ft | 479 kts | 5° |
| 2026-05-06 08:21 | 35.52768 | 117.22955 | 31754 ft | 479 kts | 5° |
| 2026-05-06 08:21 | 35.59242 | 117.24822 | 31755 ft | 479 kts | 5° |
| 2026-05-06 08:22 | 35.66763 | 117.26995 | 31758 ft | 481 kts | 5° |
| 2026-05-06 08:22 | 35.73264 | 117.28881 | 31753 ft | 479 kts | 5° |
| 2026-05-06 08:23 | 35.78656 | 117.30454 | 31752 ft | 478 kts | 5° |
| 2026-05-06 08:23 | 35.86165 | 117.32637 | 31755 ft | 479 kts | 5° |
| 2026-05-06 08:24 | 35.92662 | 117.34526 | 31757 ft | 479 kts | 5° |
| 2026-05-06 08:24 | 35.98064 | 117.35422 | 31759 ft | 464 kts | 353° |
| 2026-05-06 08:25 | 36.05371 | 117.34628 | 31758 ft | 450 kts | 339° |
| 2026-05-06 08:25 | 36.11390 | 117.32618 | 31754 ft | 445 kts | 335° |
| 2026-05-06 08:26 | 36.17289 | 117.30450 | 31754 ft | 443 kts | 335° |
| 2026-05-06 08:26 | 36.23164 | 117.28273 | 31752 ft | 446 kts | 335° |
| 2026-05-06 08:27 | 36.29116 | 117.26067 | 31748 ft | 446 kts | 335° |
| 2026-05-06 08:27 | 36.35031 | 117.23902 | 31749 ft | 445 kts | 337° |
| 2026-05-06 08:28 | 36.41198 | 117.22543 | 31756 ft | 457 kts | 346° |
| 2026-05-06 08:28 | 36.47552 | 117.21963 | 31755 ft | 462 kts | 349° |
| 2026-05-06 08:29 | 36.52901 | 117.21732 | 31751 ft | 462 kts | 350° |
| 2026-05-06 08:29 | 36.60410 | 117.21575 | 31751 ft | 463 kts | 351° |
| 2026-05-06 08:30 | 36.66794 | 117.21525 | 31751 ft | 465 kts | 352° |
| 2026-05-06 08:30 | 36.73247 | 117.21511 | 31750 ft | 463 kts | 352° |
| 2026-05-06 08:31 | 36.79689 | 117.21967 | 31749 ft | 472 kts | 360° |
| 2026-05-06 08:31 | 36.86206 | 117.23490 | 31756 ft | 479 kts | 5° |
| 2026-05-06 08:32 | 36.92667 | 117.25518 | 31753 ft | 479 kts | 7° |
| 2026-05-06 08:32 | 36.97999 | 117.27384 | 31756 ft | 477 kts | 8° |
| 2026-05-06 08:33 | 37.05320 | 117.30080 | 31751 ft | 468 kts | 7° |
| 2026-05-06 08:33 | 37.11543 | 117.32430 | 31756 ft | 466 kts | 6° |
| 2026-05-06 08:34 | 37.20840 | 117.35979 | 31209 ft | 473 kts | 6° |
| 2026-05-06 08:34 | 37.23962 | 117.37179 | 30267 ft | 477 kts | 7° |
| 2026-05-06 08:35 | 37.27123 | 117.38657 | 29570 ft | 484 kts | 17° |
| 2026-05-06 08:35 | 37.30010 | 117.40913 | 28872 ft | 494 kts | 30° |
| 2026-05-06 08:35 | 37.32512 | 117.43850 | 28143 ft | 502 kts | 41° |
| 2026-05-06 08:35 | 37.34552 | 117.47392 | 27393 ft | 510 kts | 54° |
| 2026-05-06 08:36 | 37.36038 | 117.51485 | 26610 ft | 515 kts | 66° |
| 2026-05-06 08:36 | 37.36960 | 117.55843 | 25807 ft | 515 kts | 73° |
| 2026-05-06 08:36 | 37.37660 | 117.60217 | 25085 ft | 510 kts | 75° |
| 2026-05-06 08:36 | 37.38308 | 117.64633 | 24376 ft | 504 kts | 75° |
| 2026-05-06 08:37 | 37.38909 | 117.68905 | 23686 ft | 497 kts | 76° |
| 2026-05-06 08:37 | 37.39500 | 117.73185 | 22994 ft | 489 kts | 76° |
| 2026-05-06 08:37 | 37.40067 | 117.77388 | 22317 ft | 482 kts | 76° |
| 2026-05-06 08:37 | 37.40610 | 117.81471 | 21659 ft | 474 kts | 76° |
| 2026-05-06 08:38 | 37.41151 | 117.85590 | 20990 ft | 467 kts | 77° |
| 2026-05-06 08:38 | 37.41665 | 117.89542 | 20350 ft | 460 kts | 77° |
| 2026-05-06 08:38 | 37.42174 | 117.93478 | 19705 ft | 452 kts | 77° |
| 2026-05-06 08:38 | 37.42677 | 117.97398 | 19062 ft | 445 kts | 77° |
| 2026-05-06 08:39 | 37.43163 | 118.01211 | 18437 ft | 438 kts | 77° |
| 2026-05-06 08:39 | 37.43639 | 118.04989 | 17814 ft | 431 kts | 77° |
| 2026-05-06 08:39 | 37.44099 | 118.08662 | 17206 ft | 424 kts | 78° |
| 2026-05-06 08:39 | 37.44551 | 118.12283 | 16606 ft | 418 kts | 78° |
| 2026-05-06 08:40 | 37.44999 | 118.15873 | 16007 ft | 412 kts | 78° |
| 2026-05-06 08:40 | 37.45478 | 118.19409 | 15416 ft | 404 kts | 74° |
| 2026-05-06 08:40 | 37.46304 | 118.22782 | 14820 ft | 396 kts | 66° |
| 2026-05-06 08:40 | 37.47434 | 118.25880 | 14232 ft | 389 kts | 61° |
| 2026-05-06 08:41 | 37.48248 | 118.27921 | 13864 ft | 385 kts | 61° |
| 2026-05-06 08:41 | 37.49858 | 118.31885 | 13125 ft | 378 kts | 61° |
| 2026-05-06 08:41 | 37.51062 | 118.34829 | 12572 ft | 373 kts | 61° |
| 2026-05-06 08:41 | 37.52246 | 118.37727 | 12026 ft | 369 kts | 62° |
| 2026-05-06 08:42 | 37.53016 | 118.39610 | 11670 ft | 366 kts | 62° |
| 2026-05-06 08:42 | 37.54565 | 118.43404 | 10952 ft | 361 kts | 62° |
| 2026-05-06 08:42 | 37.55703 | 118.46195 | 10563 ft | 353 kts | 62° |
| 2026-05-06 08:42 | 37.56800 | 118.48890 | 10403 ft | 339 kts | 62° |
| 2026-05-06 08:43 | 37.57862 | 118.51499 | 10195 ft | 329 kts | 62° |
| 2026-05-06 08:43 | 37.58905 | 118.54064 | 9973 ft | 320 kts | 62° |
| 2026-05-06 08:43 | 37.59909 | 118.56536 | 9753 ft | 312 kts | 62° |
| 2026-05-06 08:43 | 37.60895 | 118.58965 | 9385 ft | 311 kts | 62° |
| 2026-05-06 08:44 | 37.61868 | 118.61365 | 8999 ft | 305 kts | 62° |
| 2026-05-06 08:44 | 37.62519 | 118.62971 | 8748 ft | 299 kts | 62° |
| 2026-05-06 08:44 | 37.63757 | 118.66028 | 8268 ft | 290 kts | 62° |
| 2026-05-06 08:44 | 37.64364 | 118.67528 | 8033 ft | 285 kts | 62° |
| 2026-05-06 08:45 | 37.65406 | 118.70556 | 7398 ft | 285 kts | 80° |
| 2026-05-06 08:45 | 37.65309 | 118.73018 | 6975 ft | 277 kts | 104° |
| 2026-05-06 08:45 | 37.64555 | 118.75166 | 6379 ft | 266 kts | 123° |
| 2026-05-06 08:45 | 37.63348 | 118.76860 | 5863 ft | 254 kts | 141° |
| 2026-05-06 08:46 | 37.61837 | 118.77950 | 5379 ft | 244 kts | 160° |
| 2026-05-06 08:46 | 37.60211 | 118.78422 | 4344 ft | 252 kts | 176° |
| 2026-05-06 08:46 | 37.58449 | 118.78241 | 2943 ft | 262 kts | 187° |
| 2026-05-06 08:46 | 37.56692 | 118.78373 | 2263 ft | 243 kts | 162° |
| 2026-05-06 08:47 | 37.55518 | 118.79576 | 2126 ft | 209 kts | 115° |
| 2026-05-06 08:47 | 37.55447 | 118.81248 | 1893 ft | 185 kts | 60° |
| 2026-05-06 08:47 | 37.56367 | 118.82089 | 1945 ft | 159 kts | 0° |
| 2026-05-06 08:47 | 37.57295 | 118.81494 | 1808 ft | 154 kts | 298° |
| 2026-05-06 08:48 | 37.57392 | 118.80222 | 1746 ft | 149 kts | 251° |
| 2026-05-06 08:48 | 37.56694 | 118.79246 | 1432 ft | 155 kts | 209° |
| 2026-05-06 08:48 | 37.55703 | 118.78783 | 947 ft | 151 kts | 191° |
| 2026-05-06 08:48 | 37.54684 | 118.78698 | 554 ft | 151 kts | 180° |
| 2026-05-06 08:49 | 37.53606 | 118.78786 | 460 ft | 155 kts | 177° |
| 2026-05-06 08:49 | 37.52886 | 118.78825 | 298 ft | 154 kts | 179° |
| 2026-05-06 08:49 | 37.51489 | 118.78892 | 30 ft | 144 kts | 177° |
| 2026-05-06 08:49 | 37.50729 | 118.78941 | 28 ft | 75 kts | 177° |
| 2026-05-06 08:50 | 37.50391 | 118.78960 | 28 ft | 24 kts | 176° |
| 2026-05-06 08:50 | 37.50247 | 118.78968 | 27 ft | 23 kts | 178° |
| 2026-05-06 08:50 | 37.50084 | 118.78977 | 28 ft | 25 kts | 176° |
| 2026-05-06 08:50 | 37.49937 | 118.78973 | 27 ft | 15 kts | 209° |
| 2026-05-06 08:51 | 37.49900 | 118.78849 | 27 ft | 19 kts | 269° |
| 2026-05-06 08:51 | 37.49999 | 118.78778 | 27 ft | 23 kts | 356° |
| 2026-05-06 08:51 | 37.50176 | 118.78769 | 27 ft | 27 kts | 357° |
| 2026-05-06 08:51 | 37.50337 | 118.78757 | 27 ft | 14 kts | 346° |
| 2026-05-06 08:52 | 37.50367 | 118.78632 | 27 ft | 18 kts | 268° |
| 2026-05-06 08:52 | 37.50399 | 118.78552 | 27 ft | 8 kts | 308° |
| 2026-05-06 08:52 | 37.50409 | 118.78477 | 27 ft | 6 kts | 269° |
| 2026-05-06 08:52 | 37.50409 | 118.78464 | 27 ft | 0 kts | 268° |
| 2026-05-06 08:53 | 37.50408 | 118.78464 | 27 ft | 0 kts | 268° |